tititudorancea.com
Station Historical Data
Daily Summary for October 4, 2018 Units:  Metric    English   Both
« Previous Day
Next Day »
Daily Weekly Monthly Yearly Custom
  High: Low: Average:
Temperature: -17.8 °C 6.8 °C 9.1 °C
Dew Point: -17.8 °C 3.2 °C 5.3 °C
Humidity: Humidity % 60 % 78 %
Wind Speed: 0 km/h 9.3 km/h 26.1 km/h
Wind Gust: 0 km/h - -
Wind:- - South
Pressure: 0 hPa 1019.2 hPa -
Precipitation: 0 mm    
Historical Graphs
 
 
Ararat weather Find more about Weather in Ararat, AU


 



 


Tabular Data for October 4, 2018
Time Temperature Dew Point Pressure Wind Wind Speed Wind Gust Humidity Rainfall Rate (Hourly)
-17.8 °C -17.8 °C 0 hPa Calm     Humidity % 0 mm
00:04 8.1 °C 5.4 °C 1019.9 hPa South 18.5 km/h 12.6 km/h 83 % 0 mm
00:09 8.1 °C 5.4 °C 1020.2 hPa South 18.5 km/h 10.3 km/h 83 % 0 mm
00:14 8.2 °C 5.4 °C 1020.2 hPa South 14.8 km/h 9.7 km/h 83 % 0 mm
00:19 8.1 °C 5.4 °C 1019.9 hPa South 22.2 km/h 14.2 km/h 83 % 0 mm
00:24 8.1 °C 5.4 °C 1020.2 hPa South 18.5 km/h 13.5 km/h 83 % 0 mm
00:29 8 °C 5.3 °C 1020.2 hPa South 16.7 km/h 5.8 km/h 83 % 0 mm
00:34 7.9 °C 5.2 °C 1020.2 hPa South 13 km/h 11.4 km/h 83 % 0 mm
00:39 7.7 °C 5 °C 1020.2 hPa South 11.3 km/h 8.4 km/h 83 % 0 mm
00:44 7.6 °C 4.9 °C 1020.2 hPa South 11.1 km/h 8.9 km/h 83 % 0 mm
00:49 7.5 °C 4.9 °C 1020.2 hPa South 14.8 km/h 5.6 km/h 84 % 0 mm
00:54 7.4 °C 4.9 °C 1020.2 hPa South 11.1 km/h 6.4 km/h 84 % 0 mm
00:59 7.4 °C 4.8 °C 1019.9 hPa South 12.9 km/h 8.7 km/h 84 % 0 mm
01:04 7.4 °C 4.8 °C 1019.9 hPa South 16.7 km/h 10.3 km/h 84 % 0 mm
01:09 7.3 °C 4.8 °C 1020.2 hPa South 9.3 km/h 7.6 km/h 84 % 0 mm
01:14 7.3 °C 4.9 °C 1019.9 hPa South 13 km/h 5 km/h 85 % 0 mm
01:19 7.2 °C 4.9 °C 1020.2 hPa South 14.8 km/h 8.4 km/h 85 % 0 mm
01:24 7.2 °C 5 °C 1019.9 hPa South 9.3 km/h 7.9 km/h 86 % 0 mm
01:29 7.2 °C 5.2 °C 1019.9 hPa South 11.3 km/h 8.7 km/h 87 % 0 mm
01:34 7.2 °C 5.2 °C 1019.9 hPa South 11.1 km/h 6.4 km/h 87 % 0 mm
01:39 7.3 °C 5.3 °C 1019.9 hPa South 18.5 km/h 10.6 km/h 87 % 0 mm
01:44 7.3 °C 5.4 °C 1019.9 hPa South 13 km/h 8.4 km/h 88 % 0 mm
01:49 7.3 °C 6.1 °C 1019.9 hPa North 14.8 km/h 9.8 km/h 92 % 0 mm
01:54 7.4 °C 5.6 °C 1019.5 hPa South 13 km/h 7.9 km/h 88 % 0 mm
01:59 7.4 °C 5.6 °C 1019.5 hPa South 24.1 km/h 14.5 km/h 88 % 0 mm
02:04 7.4 °C 5.6 °C 1019.5 hPa South 20.4 km/h 10.8 km/h 88 % 0 mm
02:09 7.4 °C 5.7 °C 1019.5 hPa SSE 18.5 km/h 9.5 km/h 89 % 0 mm
02:14 7.4 °C 5.7 °C 1019.9 hPa South 19.3 km/h 11.3 km/h 89 % 0 mm
02:19 7.3 °C 5.6 °C 1019.5 hPa South 14.8 km/h 9 km/h 89 % 0 mm
02:24 7.2 °C 5.6 °C 1019.5 hPa South 18.5 km/h 10.8 km/h 89 % 0 mm
02:29 7.1 °C 5.6 °C 1019.5 hPa South 16.7 km/h 8.2 km/h 90 % 0 mm
02:34 7.1 °C 5.5 °C 1019.5 hPa South 18.5 km/h 12.9 km/h 90 % 0 mm
02:39 6.9 °C 5.4 °C 1019.5 hPa South 27.8 km/h 9.3 km/h 90 % 0 mm
02:44 6.8 °C 5.3 °C 1019.2 hPa SSE 24.1 km/h 10.5 km/h 90 % 0 mm
02:49 6.8 °C 5.1 °C 1019.2 hPa South 22.2 km/h 15.8 km/h 89 % 0 mm
02:54 6.8 °C 5.2 °C 1019.2 hPa South 20.4 km/h 13.4 km/h 89 % 0 mm
02:59 6.8 °C 5 °C 1019.2 hPa North 24.1 km/h 19.6 km/h 88 % 0 mm
03:04 6.9 °C 4.9 °C 1019.2 hPa South 25.9 km/h 15.6 km/h 87 % 0 mm
03:09 6.9 °C 4.8 °C 1019.2 hPa South 22.2 km/h 15.9 km/h 86 % 0 mm
03:14 7 °C 4.5 °C 1019.2 hPa South 27.8 km/h 12.2 km/h 84 % 0 mm
03:19 7.2 °C 4.4 °C 1019.2 hPa South 22.2 km/h 15.3 km/h 83 % 0 mm
03:24 7.3 °C 4.4 °C 1019.2 hPa South 22.2 km/h 14.5 km/h 82 % 0 mm
03:29 7.3 °C 4.4 °C 1019.2 hPa SSE 22.2 km/h 13.8 km/h 82 % 0 mm
03:34 7.4 °C 4.3 °C 1019.2 hPa SSE 35.4 km/h 18.8 km/h 81 % 0 mm
03:39 7.5 °C 4.1 °C 1019.2 hPa SE 18.5 km/h 14 km/h 79 % 0 mm
03:44 7.6 °C 4.2 °C 1019.2 hPa South 27.8 km/h 17.2 km/h 79 % 0 mm
03:49 7.6 °C 4.3 °C 1019.2 hPa South 27.8 km/h 17.9 km/h 80 % 0 mm
03:54 7.6 °C 3.9 °C 1019.2 hPa SSE 22.2 km/h 16.3 km/h 78 % 0 mm
03:59 7.6 °C 4 °C 1019.5 hPa South 18.5 km/h 13.5 km/h 78 % 0 mm
04:04 7.6 °C 3.8 °C 1019.5 hPa SSE 24.1 km/h 18.2 km/h 77 % 0 mm
04:09 7.6 °C 3.7 °C 1019.5 hPa SSE 20.4 km/h 12.4 km/h 76 % 0 mm
04:14 7.6 °C 3.8 °C 1019.5 hPa South 27.8 km/h 21.6 km/h 77 % 0 mm
04:19 7.6 °C 4 °C 1019.5 hPa SSE 22.2 km/h 16.1 km/h 78 % 0 mm
04:24 7.6 °C 3.8 °C 1019.5 hPa South 22.2 km/h 11.9 km/h 77 % 0 mm
04:29 7.5 °C 3.9 °C 1019.5 hPa South 32.2 km/h 17.5 km/h 78 % 0 mm
04:34 7.4 °C 3.7 °C 1019.5 hPa SSE 31.5 km/h 19.3 km/h 77 % 0 mm
04:39 7.4 °C 3.5 °C 1019.5 hPa South 20.4 km/h 11.1 km/h 76 % 0 mm
04:44 7.4 °C 3.4 °C 1019.5 hPa SSE 27.8 km/h 19 km/h 76 % 0 mm
04:49 7.4 °C 3.5 °C 1019.5 hPa South 16.7 km/h 8.2 km/h 76 % 0 mm
04:54 7.4 °C 3.4 °C 1019.5 hPa South 24.1 km/h 15.9 km/h 76 % 0 mm
04:59 7.4 °C 3.5 °C 1019.5 hPa North 24.1 km/h 19.3 km/h 76 % 0 mm
05:04 7.4 °C 3.5 °C 1019.9 hPa SSW 22.2 km/h 14.5 km/h 76 % 0 mm
05:09 7.4 °C 3.5 °C 1019.9 hPa South 29 km/h 15.6 km/h 76 % 0 mm
05:14 7.4 °C 3.2 °C 1019.9 hPa South 27.8 km/h 24.1 km/h 75 % 0 mm
05:19 7.4 °C 3.2 °C 1019.9 hPa South 25.9 km/h 15.6 km/h 75 % 0 mm
05:24 7.4 °C 3.2 °C 1019.9 hPa South 25.9 km/h 18.8 km/h 75 % 0 mm
05:29 7.4 °C 3.2 °C 1019.9 hPa SSE 18.5 km/h 13.7 km/h 75 % 0 mm
05:34 7.4 °C 3.2 °C 1019.9 hPa South 31.5 km/h 14.8 km/h 75 % 0 mm
05:39 7.4 °C 3.3 °C 1020.2 hPa South 24.1 km/h 14.6 km/h 75 % 0 mm
05:44 7.4 °C 3.5 °C 1020.2 hPa South 22.2 km/h 13.5 km/h 76 % 0 mm
05:49 7.4 °C 3.4 °C 1020.2 hPa South 25.9 km/h 15.8 km/h 76 % 0 mm
05:54 7.4 °C 3.4 °C 1020.2 hPa South 31.5 km/h 16.7 km/h 76 % 0 mm
05:59 7.4 °C 3.4 °C 1020.2 hPa SSE 19.3 km/h 16.1 km/h 76 % 0 mm
06:04 7.4 °C 3.5 °C 1020.2 hPa North 16.7 km/h 14.2 km/h 76 % 0 mm
06:09 7.4 °C 3.5 °C 1020.5 hPa South 24.1 km/h 14.5 km/h 76 % 0 mm
06:14 7.4 °C 3.5 °C 1020.5 hPa South 19.3 km/h 16.9 km/h 76 % 0 mm
06:19 7.4 °C 3.7 °C 1020.5 hPa SSE 22.2 km/h 11.6 km/h 77 % 0 mm
06:24 7.4 °C 3.7 °C 1020.5 hPa SSE 20.4 km/h 11.1 km/h 77 % 0 mm
06:29 7.5 °C 3.7 °C 1020.5 hPa SSW 25.9 km/h 15.4 km/h 77 % 0 mm
06:34 7.5 °C 3.7 °C 1020.9 hPa South 24.1 km/h 10.8 km/h 77 % 0 mm
06:39 7.6 °C 3.9 °C 1020.9 hPa South 27.8 km/h 13.2 km/h 78 % 0 mm
06:44 7.6 °C 3.8 °C 1020.9 hPa South 24.1 km/h 17.4 km/h 77 % 0 mm
06:49 7.7 °C 3.9 °C 1020.9 hPa SSE 29.6 km/h 15.1 km/h 77 % 0 mm
06:54 7.7 °C 3.9 °C 1020.9 hPa South 20.4 km/h 15.9 km/h 77 % 0 mm
06:59 7.8 °C 4.2 °C 1021.2 hPa South 25.9 km/h 15.3 km/h 78 % 0 mm
07:04 7.8 °C 4.4 °C 1021.2 hPa South 33.3 km/h 15.8 km/h 79 % 0 mm
07:09 7.8 °C 4.6 °C 1021.2 hPa South 19.3 km/h 17.9 km/h 80 % 0 mm
07:14 7.8 °C 4.7 °C 1021.2 hPa South 22.2 km/h 20.9 km/h 81 % 0 mm
07:19 7.7 °C 4.7 °C 1021.2 hPa SSE 27.8 km/h 14.6 km/h 81 % 0 mm
07:24 7.7 °C 5 °C 1021.2 hPa North 20.4 km/h 18.3 km/h 83 % 0 mm
07:29 7.7 °C 4.9 °C 1021.6 hPa SE 22.2 km/h 20.6 km/h 83 % 0 mm
07:34 7.7 °C 5.1 °C 1021.6 hPa South 29.6 km/h 16.9 km/h 84 % 0 mm
07:39 7.7 °C 5.2 °C 1021.6 hPa SSE 27.8 km/h 16.7 km/h 84 % 0 mm
07:44 7.9 °C 5.3 °C 1021.6 hPa SSE 30.6 km/h 18 km/h 84 % 0 mm
07:49 7.9 °C 5.4 °C 1021.6 hPa South 25.9 km/h 16.4 km/h 84 % 0 mm
07:54 8.1 °C 5.5 °C 1021.9 hPa South 25.9 km/h 13.8 km/h 84 % 0 mm
07:59 8 °C 5.3 °C 1021.9 hPa North 27.8 km/h 18.3 km/h 83 % 0 mm
08:04 8.1 °C 5.2 °C 1021.9 hPa SSE 31.5 km/h 22.9 km/h 82 % 0 mm
08:09 8.2 °C 4.9 °C 1021.9 hPa South 25.9 km/h 15.6 km/h 80 % 0 mm
08:14 8.3 °C 5.1 °C 1021.9 hPa South 22.2 km/h 14.8 km/h 80 % 0 mm
08:19 8.4 °C 4.8 °C 1022.2 hPa SSE 33.3 km/h 19.2 km/h 78 % 0 mm
08:24 8.3 °C 4.3 °C 1022.2 hPa SSE 35.2 km/h 15 km/h 76 % 0 mm
08:29 8.3 °C 3.9 °C 1022.2 hPa South 31.5 km/h 21.6 km/h 74 % 0 mm
08:34 8.4 °C 4.2 °C 1022.2 hPa South 37 km/h 20.1 km/h 75 % 0 mm
08:39 8.4 °C 4.4 °C 1022.2 hPa SSW 33.3 km/h 18.3 km/h 76 % 0 mm
08:44 8.6 °C 4.2 °C 1022.2 hPa South 25.9 km/h 25.9 km/h 74 % 0 mm
08:49 8.7 °C 3.7 °C 1022.2 hPa SSE 42.6 km/h 25.3 km/h 71 % 0 mm
08:54 8.7 °C 3.9 °C 1022.2 hPa South 42.6 km/h 17.5 km/h 72 % 0 mm
08:59 8.9 °C 4.1 °C 1022.2 hPa SSE 31.5 km/h 14.8 km/h 72 % 0 mm
09:04 8.9 °C 3.9 °C 1022.2 hPa South 31.5 km/h 23 km/h 71 % 0 mm
09:09 9 °C 4 °C 1022.2 hPa South 32.2 km/h 22.9 km/h 71 % 0 mm
09:14 8.9 °C 3.9 °C 1022.2 hPa SSE 29.6 km/h 24.6 km/h 71 % 0 mm
09:19 9 °C 4 °C 1022.2 hPa SSE 38.9 km/h 16.7 km/h 71 % 0 mm
09:24 9.1 °C 4.3 °C 1022.2 hPa SE 33.3 km/h 18.2 km/h 72 % 0 mm
09:29 9.2 °C 4.6 °C 1022.6 hPa South 42.6 km/h 22.2 km/h 73 % 0 mm
09:34 9.2 °C 4.6 °C 1022.6 hPa SE 24.1 km/h 17.2 km/h 73 % 0 mm
09:39 9.3 °C 4.7 °C 1022.2 hPa SSE 32.2 km/h 24.1 km/h 73 % 0 mm
09:44 9.4 °C 4.4 °C 1022.2 hPa SSE 27.4 km/h 19 km/h 71 % 0 mm
09:49 9.5 °C 4.3 °C 1022.6 hPa SSE 35.2 km/h 25.9 km/h 70 % 0 mm
09:54 9.6 °C 4.3 °C 1022.2 hPa SSE 29 km/h 21.6 km/h 70 % 0 mm
09:59 9.9 °C 4.5 °C 1022.2 hPa SSE 27.8 km/h 22.7 km/h 69 % 0 mm
10:04 10 °C 4.3 °C 1022.2 hPa SSE 24.1 km/h 15.1 km/h 68 % 0 mm
10:09 10.1 °C 4.7 °C 1022.2 hPa SSE 29.6 km/h 13 km/h 69 % 0 mm
10:14 10 °C 4.3 °C 1022.2 hPa SSE 31.5 km/h 24.8 km/h 68 % 0 mm
10:19 10 °C 4.3 °C 1022.2 hPa SSE 27.8 km/h 22.2 km/h 68 % 0 mm
10:24 10.1 °C 4.7 °C 1022.2 hPa SSE 29 km/h 20.9 km/h 69 % 0 mm
10:29 10.1 °C 4.8 °C 1022.2 hPa SE 29.6 km/h 16.6 km/h 70 % 0 mm
10:34 9.9 °C 4.9 °C 1022.2 hPa SSE 37 km/h 23 km/h 71 % 0 mm
10:39 9.9 °C 4.7 °C 1022.2 hPa SSE 31.5 km/h 21.9 km/h 70 % 0 mm
10:44 10.1 °C 4.4 °C 1022.2 hPa South 35.2 km/h 23 km/h 68 % 0 mm
10:49 10.4 °C 4.8 °C 1022.2 hPa SSE 31.5 km/h 20.8 km/h 68 % 0 mm
10:54 10.7 °C 5.3 °C 1022.2 hPa SSE 24.1 km/h 15.4 km/h 69 % 0 mm
10:59 10.6 °C 4.9 °C 1022.2 hPa South 29.6 km/h 17.7 km/h 68 % 0 mm
11:04 10.4 °C 5 °C 1021.9 hPa SSE 20.4 km/h 17.5 km/h 69 % 0 mm
11:09 10.3 °C 4.9 °C 1021.9 hPa SSW 22.2 km/h 19.5 km/h 69 % 0 mm
11:14 10.3 °C 4.8 °C 1021.9 hPa South 31.5 km/h 22.2 km/h 69 % 0 mm
11:19 10.2 °C 4.8 °C 1021.9 hPa South 33.3 km/h 23.3 km/h 69 % 0 mm
11:24 10.2 °C 5.2 °C 1021.9 hPa South 22.2 km/h 20.8 km/h 71 % 0 mm
11:29 10.3 °C 4.6 °C 1021.9 hPa SSE 35.2 km/h 20.8 km/h 68 % 0 mm
11:34 10.3 °C 4.7 °C 1021.9 hPa South 29.6 km/h 18.7 km/h 68 % 0 mm
11:39 10.5 °C 5.1 °C 1021.9 hPa SSE 27.8 km/h 16.9 km/h 69 % 0 mm
11:44 10.9 °C 5.1 °C 1021.9 hPa South 29.6 km/h 17.9 km/h 67 % 0 mm
11:49 11.2 °C 4.8 °C 1021.6 hPa SSW 32.2 km/h 19.8 km/h 65 % 0 mm
11:54 11.1 °C 4.3 °C 1021.9 hPa SE 27.8 km/h 17.4 km/h 63 % 0 mm
11:59 11.4 °C 4.8 °C 1021.6 hPa South 29.6 km/h 17.1 km/h 64 % 0 mm
12:04 11.7 °C 5.1 °C 1021.6 hPa SSE 27.8 km/h 20.3 km/h 64 % 0 mm
12:09 11.5 °C 4.7 °C 1021.6 hPa South 37 km/h 20.4 km/h 63 % 0 mm
12:14 11.5 °C 4.9 °C 1021.6 hPa South 29.6 km/h 20.4 km/h 64 % 0 mm
12:19 11.9 °C 4.9 °C 1021.6 hPa South 38.9 km/h 22 km/h 62 % 0 mm
12:24 12.1 °C 4.6 °C 1021.6 hPa SSE 42.6 km/h 21.1 km/h 60 % 0 mm
12:29 12 °C 4.7 °C 1021.6 hPa South 29.6 km/h 14 km/h 61 % 0 mm
12:34 11.8 °C 4.8 °C 1021.6 hPa South 40.7 km/h 22.2 km/h 62 % 0 mm
12:39 11.8 °C 4.8 °C 1021.6 hPa South 33.3 km/h 20 km/h 62 % 0 mm
12:44 11.7 °C 4.9 °C 1021.2 hPa South 33.3 km/h 25.1 km/h 63 % 0 mm
12:49 11.9 °C 5.1 °C 1021.2 hPa South 27.8 km/h 14.3 km/h 63 % 0 mm
12:54 11.8 °C 4.9 °C 1021.6 hPa SSE 31.5 km/h 17.9 km/h 63 % 0 mm
12:59 11.7 °C 5.1 °C 1021.6 hPa South 38.6 km/h 25.4 km/h 64 % 0 mm
13:04 11.9 °C 4.7 °C 1021.2 hPa South 31.5 km/h 20.9 km/h 61 % 0 mm
13:09 12 °C 4.7 °C 1021.6 hPa South 33.3 km/h 20 km/h 61 % 0 mm
13:14 12.4 °C 4.9 °C 1021.2 hPa SSE 40.7 km/h 20 km/h 60 % 0 mm
13:19 11.9 °C 4.8 °C 1021.2 hPa SSW 33.3 km/h 23 km/h 62 % 0 mm
13:24 11.9 °C 4.9 °C 1021.2 hPa South 40.7 km/h 23.8 km/h 62 % 0 mm
13:29 12.1 °C 5.2 °C 1021.2 hPa South 40.7 km/h 17.5 km/h 63 % 0 mm
13:34 12.1 °C 5.2 °C 1021.2 hPa South 24.1 km/h 17.1 km/h 63 % 0 mm
13:39 12 °C 5.2 °C 1021.2 hPa South 27.8 km/h 24.6 km/h 63 % 0 mm
13:44 11.7 °C 4.7 °C 1021.2 hPa SSE 31.5 km/h 26.1 km/h 62 % 0 mm
13:49 11.8 °C 4.7 °C 1021.2 hPa SSE 25.9 km/h 16.9 km/h 62 % 0 mm
13:54 12 °C 4.7 °C 1021.2 hPa SSW 33.3 km/h 24 km/h 61 % 0 mm
13:59 12.4 °C 5.3 °C 1021.2 hPa SSE 31.5 km/h 21.4 km/h 62 % 0 mm
14:04 12.4 °C 5.1 °C 1021.2 hPa SSE 31.5 km/h 25.1 km/h 61 % 0 mm
14:09 12.1 °C 5.3 °C 1021.2 hPa SSW 33.3 km/h 21.4 km/h 63 % 0 mm
14:14 11.7 °C 5.1 °C 1021.2 hPa South 42.6 km/h 25.3 km/h 64 % 0 mm
14:19 11.6 °C 5 °C 1021.2 hPa SSW 35.2 km/h 19.2 km/h 64 % 0 mm
14:24 11.6 °C 5.2 °C 1021.2 hPa South 35.2 km/h 19 km/h 65 % 0 mm
14:29 11.4 °C 5.1 °C 1021.2 hPa South 31.5 km/h 17.4 km/h 65 % 0 mm
14:34 11.7 °C 5.1 °C 1021.2 hPa South 29 km/h 20.3 km/h 64 % 0 mm
14:39 11.8 °C 5 °C 1021.2 hPa SSE 24.1 km/h 18.7 km/h 63 % 0 mm
14:44 11.7 °C 5.1 °C 1021.2 hPa South 27.8 km/h 12.7 km/h 64 % 0 mm
14:49 11.6 °C 5 °C 1021.2 hPa South 22.5 km/h 17.9 km/h 64 % 0 mm
14:54 11.6 °C 4.8 °C 1020.9 hPa SSE 22.2 km/h 24.3 km/h 63 % 0 mm
14:59 11.5 °C 4.9 °C 1021.2 hPa South 27.8 km/h 24.9 km/h 64 % 0 mm
15:04 11.4 °C 5.1 °C 1021.2 hPa South 31.5 km/h 23.8 km/h 65 % 0 mm
15:09 11.3 °C 5.6 °C 1021.2 hPa SE 18.5 km/h 16.9 km/h 68 % 0 mm
15:14 11.4 °C 5.3 °C 1020.9 hPa South 38.9 km/h 17.7 km/h 66 % 0 mm
15:19 11.2 °C 5.6 °C 1021.2 hPa SSE 18.5 km/h 13.8 km/h 68 % 0 mm
15:24 11.3 °C 5.6 °C 1020.9 hPa SSE 24.1 km/h 13.4 km/h 68 % 0 mm
15:29 11.4 °C 5.5 °C 1020.9 hPa South 20.4 km/h 16.3 km/h 67 % 0 mm
15:34 11.2 °C 5.6 °C 1021.2 hPa SSE 40.7 km/h 19.5 km/h 68 % 0 mm
15:39 10.8 °C 5.5 °C 1021.2 hPa South 38.9 km/h 18.8 km/h 70 % 0 mm
15:44 10.6 °C 5.4 °C 1021.2 hPa South 37 km/h 19.3 km/h 70 % 0 mm
15:49 10.6 °C 5.6 °C 1021.2 hPa SSW 22.2 km/h 15.1 km/h 71 % 0 mm
15:54 10.7 °C 5.4 °C 1021.2 hPa SSE 31.5 km/h 14.6 km/h 70 % 0 mm
15:59 10.9 °C 5.6 °C 1021.2 hPa SSW 37 km/h 18.8 km/h 70 % 0 mm
16:04 10.9 °C 5.6 °C 1021.2 hPa South 31.5 km/h 20.6 km/h 70 % 0 mm
16:09 10.7 °C 5.9 °C 1021.2 hPa South 20.9 km/h 14 km/h 72 % 0 mm
16:14 10.7 °C 5.8 °C 1021.2 hPa South 24.1 km/h 19.5 km/h 72 % 0 mm
16:19 10.6 °C 5.7 °C 1021.2 hPa South 38.9 km/h 21.9 km/h 72 % 0 mm
16:24 10.5 °C 5.7 °C 1021.6 hPa South 31.5 km/h 22 km/h 72 % 0 mm
16:29 10.5 °C 5.4 °C 1021.6 hPa SSE 33.3 km/h 22 km/h 71 % 0 mm
16:34 10.6 °C 5.5 °C 1021.2 hPa South 31.5 km/h 16.6 km/h 71 % 0 mm
16:39 10.7 °C 5.4 °C 1021.2 hPa SSW 35.2 km/h 19.2 km/h 70 % 0 mm
16:44 10.7 °C 5.3 °C 1021.2 hPa SSW 31.5 km/h 15.1 km/h 69 % 0 mm
16:49 10.8 °C 5.1 °C 1021.2 hPa SSE 31.5 km/h 24.3 km/h 68 % 0 mm
16:54 10.8 °C 5.3 °C 1021.6 hPa South 20.9 km/h 13.5 km/h 69 % 0 mm
16:59 10.7 °C 5.4 °C 1021.6 hPa South 29.6 km/h 17.4 km/h 70 % 0 mm
17:04 10.7 °C 5.6 °C 1021.6 hPa North 25.9 km/h 15.3 km/h 71 % 0 mm
17:09 10.7 °C 5.8 °C 1021.6 hPa South 24.1 km/h 16.3 km/h 72 % 0 mm
17:14 10.6 °C 5.9 °C 1021.6 hPa South 35.2 km/h 19.5 km/h 73 % 0 mm
17:19 10.5 °C 6.1 °C 1021.6 hPa South 29.6 km/h 16.7 km/h 74 % 0 mm
17:24 10.4 °C 6.2 °C 1021.6 hPa SSW 27.8 km/h 24.6 km/h 75 % 0 mm
17:29 10.3 °C 6.1 °C 1021.9 hPa South 30.6 km/h 17.9 km/h 75 % 0 mm
17:34 10.2 °C 6.2 °C 1021.9 hPa SSE 31.5 km/h 21.2 km/h 76 % 0 mm
17:39 10.2 °C 6.3 °C 1021.9 hPa South 33.3 km/h 22.4 km/h 77 % 0 mm
17:44 10.1 °C 6.4 °C 1021.9 hPa South 37 km/h 20.6 km/h 78 % 0 mm
17:49 9.9 °C 6.3 °C 1021.9 hPa South 29.6 km/h 25.6 km/h 78 % 0 mm
17:54 9.9 °C 6.4 °C 1021.9 hPa South 31.5 km/h 18.7 km/h 79 % 0 mm
17:59 9.8 °C 6.5 °C 1021.9 hPa South 24.1 km/h 21.2 km/h 80 % 0 mm
18:04 9.7 °C 6.6 °C 1021.9 hPa South 25.9 km/h 18.2 km/h 81 % 0 mm
18:09 9.7 °C 6.6 °C 1021.9 hPa SSW 27.8 km/h 21.2 km/h 81 % 0 mm
18:14 9.6 °C 6.7 °C 1021.9 hPa South 27.8 km/h 13.2 km/h 82 % 0 mm
18:19 9.6 °C 6.7 °C 1021.9 hPa South 25.9 km/h 17.9 km/h 82 % 0 mm
18:24 9.6 °C 6.6 °C 1022.2 hPa South 25.9 km/h 10.8 km/h 82 % 0 mm
18:29 9.5 °C 6.8 °C 1022.2 hPa South 33.3 km/h 14.3 km/h 83 % 0 mm
18:34 9.4 °C 6.7 °C 1022.2 hPa SSW 20.9 km/h 18.7 km/h 83 % 0 mm
18:39 9.4 °C 6.7 °C 1022.2 hPa South 27.8 km/h 11.6 km/h 83 % 0 mm
18:44 9.4 °C 6.7 °C 1022.2 hPa North 25.9 km/h 20.3 km/h 83 % 0 mm
18:49 9.4 °C 6.7 °C 1022.6 hPa South 37 km/h 17.4 km/h 83 % 0 mm
18:54 9.4 °C 6.8 °C 1022.2 hPa South 31.5 km/h 18 km/h 84 % 0 mm
18:59 9.3 °C 6.7 °C 1022.6 hPa North 29.6 km/h 19.5 km/h 84 % 0 mm
19:04 9.3 °C 6.7 °C 1022.6 hPa SSW 31.5 km/h 17.9 km/h 84 % 0 mm
19:09 9.2 °C 6.8 °C 1022.6 hPa North 20.4 km/h 16.3 km/h 85 % 0 mm
19:14 9.2 °C 6.8 °C 1022.6 hPa South 31.5 km/h 18.7 km/h 85 % 0 mm
19:19 9.2 °C 6.9 °C 1022.6 hPa SSW 20.4 km/h 18.8 km/h 86 % 0 mm
19:24 9.1 °C 6.9 °C 1022.6 hPa South 24.1 km/h 11.9 km/h 86 % 0 mm
19:29 9.1 °C 7.1 °C 1022.6 hPa South 24.1 km/h 13.4 km/h 87 % 0 mm
19:34 9.1 °C 7 °C 1022.9 hPa South 20.4 km/h 16.7 km/h 87 % 0 mm
19:39 9 °C 6.9 °C 1022.9 hPa South 25.9 km/h 19.2 km/h 87 % 0 mm
19:44 9 °C 7.1 °C 1022.9 hPa SSW 31.5 km/h 19.2 km/h 88 % 0 mm
19:49 9 °C 7.1 °C 1022.9 hPa North 27.8 km/h 17.7 km/h 88 % 0 mm
19:54 9 °C 7.1 °C 1022.9 hPa South 22.5 km/h 19.8 km/h 88 % 0 mm
19:59 9 °C 7.1 °C 1022.9 hPa South 20.9 km/h 11.1 km/h 88 % 0 mm
20:04 9 °C 7.3 °C 1022.9 hPa SSW 25.9 km/h 19.6 km/h 89 % 0 mm
20:09 8.9 °C 7.1 °C 1022.9 hPa South 22.2 km/h 15.3 km/h 88 % 0 mm
20:14 8.9 °C 7.2 °C 1023.2 hPa SSW 25.7 km/h 15.6 km/h 89 % 0 mm
20:19 8.9 °C 7.2 °C 1023.2 hPa South 18.5 km/h 10 km/h 89 % 0 mm
20:24 8.9 °C 7.2 °C 1023.2 hPa South 18.5 km/h 17.5 km/h 89 % 0 mm
20:29 8.8 °C 7.1 °C 1023.2 hPa South 25.9 km/h 19.5 km/h 89 % 0 mm
20:34 8.9 °C 7.2 °C 1023.2 hPa South 24.1 km/h 16.4 km/h 89 % 0 mm
20:39 8.9 °C 7.2 °C 1023.2 hPa South 20.4 km/h 11.6 km/h 89 % 0 mm
20:44 8.9 °C 7.3 °C 1023.6 hPa South 27.8 km/h 16.9 km/h 90 % 0 mm
20:49 8.9 °C 7.3 °C 1023.6 hPa South 27.8 km/h 22.5 km/h 90 % 0 mm
20:54 8.9 °C 7.4 °C 1023.6 hPa South 25.9 km/h 10.6 km/h 90 % 0 mm
20:59 8.9 °C 7.4 °C 1023.6 hPa South 18.5 km/h 10.1 km/h 90 % 0 mm
21:04 8.9 °C 7.4 °C 1023.6 hPa South 24.1 km/h 15.3 km/h 90 % 0 mm
21:09 8.9 °C 7.4 °C 1023.6 hPa South 20.4 km/h 14 km/h 90 % 0 mm
21:14 8.9 °C 7.4 °C 1023.6 hPa South 22.2 km/h 13.8 km/h 90 % 0 mm
21:19 8.9 °C 7.3 °C 1023.6 hPa South 24.1 km/h 20.6 km/h 90 % 0 mm
21:24 8.9 °C 7.3 °C 1023.9 hPa South 25.7 km/h 14.5 km/h 90 % 0 mm
21:29 8.8 °C 7.2 °C 1023.9 hPa South 22.2 km/h 16.3 km/h 90 % 0 mm
21:34 8.8 °C 7.2 °C 1023.9 hPa SSE 18.5 km/h 9.8 km/h 90 % 0 mm
21:39 8.8 °C 7.3 °C 1023.9 hPa South 24.1 km/h 14.5 km/h 90 % 0 mm
21:44 8.8 °C 7.2 °C 1023.9 hPa North 16.7 km/h 10 km/h 90 % 0 mm
21:49 8.8 °C 7.2 °C 1023.9 hPa South 18.5 km/h 9.7 km/h 90 % 0 mm
21:54 8.8 °C 7.2 °C 1023.9 hPa SSE 16.7 km/h 8.4 km/h 90 % 0 mm
21:59 8.8 °C 7.2 °C 1023.9 hPa North 20.4 km/h 11.9 km/h 90 % 0 mm
22:04 8.8 °C 7.2 °C 1023.9 hPa South 27.4 km/h 16.6 km/h 90 % 0 mm
22:08 8.8 °C 7.3 °C 1023.9 hPa South 25.9 km/h 16.1 km/h 90 % 0 mm
22:14 8.8 °C 7.3 °C 1023.9 hPa North 25.9 km/h 13 km/h 90 % 0 mm
22:19 8.8 °C 7.4 °C 1023.9 hPa South 18.5 km/h 10.6 km/h 91 % 0 mm
22:24 8.8 °C 7.4 °C 1023.9 hPa SSE 16.7 km/h 7.2 km/h 91 % 0 mm
22:29 8.8 °C 7.4 °C 1023.9 hPa South 22.2 km/h 15.8 km/h 91 % 0 mm
22:34 8.7 °C 7.3 °C 1023.9 hPa South 20.9 km/h 11.7 km/h 91 % 0 mm
22:39 8.7 °C 7.3 °C 1023.9 hPa South 19.3 km/h 15.1 km/h 91 % 0 mm
22:44 8.7 °C 7.3 °C 1023.9 hPa South 18.5 km/h 9.2 km/h 91 % 0 mm
22:49 8.6 °C 7.2 °C 1023.9 hPa South 22.2 km/h 12.1 km/h 91 % 0 mm
22:54 8.6 °C 7.2 °C 1023.9 hPa South 27.8 km/h 10.9 km/h 91 % 0 mm
22:59 8.6 °C 7.2 °C 1023.6 hPa South 27.8 km/h 10.5 km/h 91 % 0 mm
23:04 8.6 °C 7.2 °C 1023.6 hPa North 24.1 km/h 16.1 km/h 91 % 0 mm
23:09 8.5 °C 7.1 °C 1023.6 hPa North 24.1 km/h 15.4 km/h 91 % 0 mm
23:14 8.5 °C 7.1 °C 1023.6 hPa North 22.2 km/h 12.6 km/h 91 % 0 mm
23:19 8.4 °C 7.1 °C 1023.6 hPa South 14.5 km/h 10.5 km/h 91 % 0 mm
23:24 8.4 °C 7.1 °C 1023.6 hPa North 19.3 km/h 15.6 km/h 91 % 0 mm
23:29 8.4 °C 7.2 °C 1023.6 hPa South 24.1 km/h 18 km/h 92 % 0 mm
23:34 8.4 °C 7.2 °C 1023.6 hPa South 22.2 km/h 11.1 km/h 92 % 0 mm
23:39 8.4 °C 7.2 °C 1023.6 hPa South 24.1 km/h 12.4 km/h 92 % 0 mm
23:44 8.4 °C 7.2 °C 1023.6 hPa SSE 20.4 km/h 13 km/h 92 % 0 mm
23:49 8.4 °C 7.2 °C 1023.6 hPa South 22.2 km/h 12.9 km/h 92 % 0 mm
23:54 8.5 °C 7.3 °C 1023.6 hPa South 24.1 km/h 19.2 km/h 92 % 0 mm
23:59 8.5 °C 7.3 °C 1023.6 hPa South 20.9 km/h 13.8 km/h 92 % 0 mm
Ararat Weather
Compliments of Weather Underground - 2.25 mb
Click here to send mail.


ABOUT

Live weather data from Ararat, Victoria, Australia, 3377
Data uploaded from Cumulus every 5 minutes to Weather Underground.
This site then downloads the raw data for formatting and display.
Metric and imperial data can be displayed. Graphs and historical data available.
Includes Sun and Moon times and rain image live from BOM.

Check out Ararat Weather on Facebook, Twitter and Google +

Help support ongoing costs by checking out the ads





Follow @AraratWeather